sensor_id;sensor_type;location;lat;lon;timestamp;pressure;altitude;pressure_sealevel;temperature;humidity
74921;BME280;63483;47.384;8.860;2023-07-22T00:02:12;94668.38;;;16.47;51.04
74921;BME280;63483;47.384;8.860;2023-07-22T00:04:37;94663.94;;;16.48;50.94
74921;BME280;63483;47.384;8.860;2023-07-22T00:07:03;94660.25;;;16.49;51.21
74921;BME280;63483;47.384;8.860;2023-07-22T00:09:28;94660.25;;;16.49;51.19
74921;BME280;63483;47.384;8.860;2023-07-22T00:11:54;94670.81;;;16.49;51.42
74921;BME280;63483;47.384;8.860;2023-07-22T00:14:19;94669.22;;;16.48;51.37
74921;BME280;63483;47.384;8.860;2023-07-22T00:16:44;94660.69;;;16.46;50.97
74921;BME280;63483;47.384;8.860;2023-07-22T00:19:10;94659.03;;;16.45;51.05
74921;BME280;63483;47.384;8.860;2023-07-22T00:21:35;94658.25;;;16.44;51.21
74921;BME280;63483;47.384;8.860;2023-07-22T00:24:00;94653.75;;;16.45;51.10
74921;BME280;63483;47.384;8.860;2023-07-22T00:26:26;94663.31;;;16.46;51.39
74921;BME280;63483;47.384;8.860;2023-07-22T00:28:52;94659.88;;;16.45;51.01
74921;BME280;63483;47.384;8.860;2023-07-22T00:31:17;94650.72;;;16.48;51.25
74921;BME280;63483;47.384;8.860;2023-07-22T00:33:42;94650.50;;;16.49;50.93
74921;BME280;63483;47.384;8.860;2023-07-22T00:36:08;94655.78;;;16.49;51.24
74921;BME280;63483;47.384;8.860;2023-07-22T00:38:33;94657.59;;;16.49;51.30
74921;BME280;63483;47.384;8.860;2023-07-22T00:40:58;94654.94;;;16.49;51.45
74921;BME280;63483;47.384;8.860;2023-07-22T00:43:24;94648.88;;;16.48;51.31
74921;BME280;63483;47.384;8.860;2023-07-22T00:45:51;94650.09;;;16.46;50.88
74921;BME280;63483;47.384;8.860;2023-07-22T00:48:17;94646.13;;;16.37;51.13
74921;BME280;63483;47.384;8.860;2023-07-22T00:50:42;94645.41;;;16.23;51.22
74921;BME280;63483;47.384;8.860;2023-07-22T00:53:08;94636.53;;;16.17;50.83
74921;BME280;63483;47.384;8.860;2023-07-22T00:55:34;94638.56;;;16.15;50.93
74921;BME280;63483;47.384;8.860;2023-07-22T00:58:00;94640.97;;;16.17;51.23
74921;BME280;63483;47.384;8.860;2023-07-22T01:00:26;94634.47;;;16.19;51.41
74921;BME280;63483;47.384;8.860;2023-07-22T01:02:52;94638.50;;;16.22;51.77
74921;BME280;63483;47.384;8.860;2023-07-22T01:05:18;94627.94;;;16.22;51.37
74921;BME280;63483;47.384;8.860;2023-07-22T01:07:43;94632.00;;;16.24;51.37
74921;BME280;63483;47.384;8.860;2023-07-22T01:10:09;94633.59;;;16.25;51.42
74921;BME280;63483;47.384;8.860;2023-07-22T01:12:35;94633.59;;;16.25;51.39
74921;BME280;63483;47.384;8.860;2023-07-22T01:15:00;94635.22;;;16.26;51.15
74921;BME280;63483;47.384;8.860;2023-07-22T01:17:28;94625.53;;;16.20;51.66
74921;BME280;63483;47.384;8.860;2023-07-22T01:19:54;94620.66;;;16.17;51.28
74921;BME280;63483;47.384;8.860;2023-07-22T01:22:21;94625.97;;;16.17;51.37
74921;BME280;63483;47.384;8.860;2023-07-22T01:24:47;94627.56;;;16.18;51.53
74921;BME280;63483;47.384;8.860;2023-07-22T01:27:12;94629.19;;;16.19;51.64
74921;BME280;63483;47.384;8.860;2023-07-22T01:29:39;94632.41;;;16.21;51.33
74921;BME280;63483;47.384;8.860;2023-07-22T01:32:05;94630.59;;;16.22;51.50
74921;BME280;63483;47.384;8.860;2023-07-22T01:34:30;94634.81;;;16.23;51.54
74921;BME280;63483;47.384;8.860;2023-07-22T01:36:57;94628.75;;;16.22;51.14
74921;BME280;63483;47.384;8.860;2023-07-22T01:39:22;94626.09;;;16.22;51.65
74921;BME280;63483;47.384;8.860;2023-07-22T01:41:48;94629.75;;;16.21;51.05
74921;BME280;63483;47.384;8.860;2023-07-22T01:44:14;94627.13;;;16.21;51.53
74921;BME280;63483;47.384;8.860;2023-07-22T01:46:39;94626.09;;;16.22;51.35
74921;BME280;63483;47.384;8.860;2023-07-22T01:49:07;94632.41;;;16.21;50.78
74921;BME280;63483;47.384;8.860;2023-07-22T01:51:35;94616.56;;;16.21;51.04
74921;BME280;63483;47.384;8.860;2023-07-22T01:54:02;94617.59;;;16.20;50.93
74921;BME280;63483;47.384;8.860;2023-07-22T01:56:28;94616.75;;;16.20;51.09
74921;BME280;63483;47.384;8.860;2023-07-22T01:58:53;94620.66;;;16.17;50.91
74921;BME280;63483;47.384;8.860;2023-07-22T02:01:19;94621.69;;;16.16;51.11
74921;BME280;63483;47.384;8.860;2023-07-22T02:03:44;94619.25;;;16.14;51.26
74921;BME280;63483;47.384;8.860;2023-07-22T02:06:10;94621.09;;;16.14;51.16
74921;BME280;63483;47.384;8.860;2023-07-22T02:08:35;94626.38;;;16.14;51.34
74921;BME280;63483;47.384;8.860;2023-07-22T02:11:05;94635.91;;;16.15;50.80
74921;BME280;63483;47.384;8.860;2023-07-22T02:13:32;94642.25;;;16.14;50.99
74921;BME280;63483;47.384;8.860;2023-07-22T02:15:58;94638.56;;;16.15;50.81
74921;BME280;63483;47.384;8.860;2023-07-22T02:18:24;94630.63;;;16.15;50.92
74921;BME280;63483;47.384;8.860;2023-07-22T02:20:49;94631.66;;;16.14;50.75
74921;BME280;63483;47.384;8.860;2023-07-22T02:23:14;94643.84;;;16.15;51.05
74921;BME280;63483;47.384;8.860;2023-07-22T02:25:40;94635.91;;;16.15;50.82
74921;BME280;63483;47.384;8.860;2023-07-22T02:28:05;94645.47;;;16.16;51.08
74921;BME280;63483;47.384;8.860;2023-07-22T02:30:34;94637.75;;;16.14;51.42
74921;BME280;63483;47.384;8.860;2023-07-22T02:33:01;94640.00;;;16.11;50.72
74921;BME280;63483;47.384;8.860;2023-07-22T02:35:27;94633.53;;;16.07;50.70
74921;BME280;63483;47.384;8.860;2023-07-22T02:37:53;94629.09;;;16.01;51.03
74921;BME280;63483;47.384;8.860;2023-07-22T02:40:18;94631.13;;;15.98;50.78
74921;BME280;63483;47.384;8.860;2023-07-22T02:42:43;94643.91;;;16.02;50.94
74921;BME280;63483;47.384;8.860;2023-07-22T02:45:09;94642.31;;;16.01;50.92
74921;BME280;63483;47.384;8.860;2023-07-22T02:47:34;94627.69;;;15.98;50.61
74921;BME280;63483;47.384;8.860;2023-07-22T02:50:00;94616.72;;;15.94;50.74
74921;BME280;63483;47.384;8.860;2023-07-22T02:52:26;94623.25;;;15.92;50.75
74921;BME280;63483;47.384;8.860;2023-07-22T02:55:21;94619.63;;;15.86;50.57
74921;BME280;63483;47.384;8.860;2023-07-22T02:57:47;94625.78;;;15.80;50.32
74921;BME280;63483;47.384;8.860;2023-07-22T03:00:14;94620.72;;;15.78;50.93
74921;BME280;63483;47.384;8.860;2023-07-22T03:02:51;94619.09;;;15.77;50.81
74921;BME280;63483;47.384;8.860;2023-07-22T03:05:18;94628.84;;;15.77;50.95
74921;BME280;63483;47.384;8.860;2023-07-22T03:07:44;94621.13;;;15.75;50.71
74921;BME280;63483;47.384;8.860;2023-07-22T03:10:09;94614.59;;;15.78;50.86
74921;BME280;63483;47.384;8.860;2023-07-22T03:12:36;94615.47;;;15.72;49.67
74921;BME280;63483;47.384;8.860;2023-07-22T03:15:02;94619.59;;;15.61;50.01
74921;BME280;63483;47.384;8.860;2023-07-22T03:17:33;94619.19;;;15.57;50.01
74921;BME280;63483;47.384;8.860;2023-07-22T03:19:59;94613.47;;;15.60;50.56
74921;BME280;63483;47.384;8.860;2023-07-22T03:22:24;94610.84;;;15.60;50.69
74921;BME280;63483;47.384;8.860;2023-07-22T03:24:49;94607.19;;;15.61;50.60
74921;BME280;63483;47.384;8.860;2023-07-22T03:27:15;94613.28;;;15.62;50.38
74921;BME280;63483;47.384;8.860;2023-07-22T03:29:42;94613.28;;;15.62;50.40
74921;BME280;63483;47.384;8.860;2023-07-22T03:32:07;94613.47;;;15.60;50.45
74921;BME280;63483;47.384;8.860;2023-07-22T03:34:33;94616.13;;;15.60;50.72
74921;BME280;63483;47.384;8.860;2023-07-22T03:36:58;94618.97;;;15.59;50.24
74921;BME280;63483;47.384;8.860;2023-07-22T03:39:24;94612.09;;;15.58;50.42
74921;BME280;63483;47.384;8.860;2023-07-22T03:41:49;94611.69;;;15.54;50.38
74921;BME280;63483;47.384;8.860;2023-07-22T03:44:15;94611.75;;;15.48;50.25
74921;BME280;63483;47.384;8.860;2023-07-22T03:46:40;94608.28;;;15.47;50.73
74921;BME280;63483;47.384;8.860;2023-07-22T03:49:05;94616.19;;;15.47;50.61
74921;BME280;63483;47.384;8.860;2023-07-22T03:51:32;94614.97;;;15.50;50.67
74921;BME280;63483;47.384;8.860;2023-07-22T03:53:57;94615.78;;;15.50;50.15
74921;BME280;63483;47.384;8.860;2023-07-22T03:56:23;94617.41;;;15.51;49.69
74921;BME280;63483;47.384;8.860;2023-07-22T03:58:51;94617.03;;;15.48;49.76
74921;BME280;63483;47.384;8.860;2023-07-22T04:01:18;94617.44;;;15.44;49.51
74921;BME280;63483;47.384;8.860;2023-07-22T04:03:43;94624.75;;;15.42;50.17
74921;BME280;63483;47.384;8.860;2023-07-22T04:06:09;94621.31;;;15.42;49.91
74921;BME280;63483;47.384;8.860;2023-07-22T04:08:34;94629.22;;;15.42;49.80
74921;BME280;63483;47.384;8.860;2023-07-22T04:10:59;94631.28;;;15.40;50.07
74921;BME280;63483;47.384;8.860;2023-07-22T04:13:25;94626.81;;;15.40;49.45
74921;BME280;63483;47.384;8.860;2023-07-22T04:15:51;94628.44;;;15.35;49.65
74921;BME280;63483;47.384;8.860;2023-07-22T04:18:18;94621.94;;;15.31;49.79
74921;BME280;63483;47.384;8.860;2023-07-22T04:20:44;94618.72;;;15.28;49.80
74921;BME280;63483;47.384;8.860;2023-07-22T04:23:10;94630.91;;;15.30;49.74
74921;BME280;63483;47.384;8.860;2023-07-22T04:25:42;94632.94;;;15.34;50.01
74921;BME280;63483;47.384;8.860;2023-07-22T04:28:08;94633.72;;;15.35;49.65
74921;BME280;63483;47.384;8.860;2023-07-22T04:30:34;94639.22;;;15.33;50.07
74921;BME280;63483;47.384;8.860;2023-07-22T04:33:00;94641.84;;;15.33;50.11
74921;BME280;63483;47.384;8.860;2023-07-22T04:35:25;94638.59;;;15.31;50.18
74921;BME280;63483;47.384;8.860;2023-07-22T04:37:50;94645.28;;;15.34;50.33
74921;BME280;63483;47.384;8.860;2023-07-22T04:40:16;94649.56;;;15.35;50.01
74921;BME280;63483;47.384;8.860;2023-07-22T04:42:43;94649.56;;;15.35;50.29
74921;BME280;63483;47.384;8.860;2023-07-22T04:45:09;94646.72;;;15.36;49.68
74921;BME280;63483;47.384;8.860;2023-07-22T04:47:36;94645.09;;;15.35;50.26
74921;BME280;63483;47.384;8.860;2023-07-22T04:50:02;94645.91;;;15.36;49.66
74921;BME280;63483;47.384;8.860;2023-07-22T04:52:27;94634.75;;;15.34;49.49
74921;BME280;63483;47.384;8.860;2023-07-22T04:54:52;94643.03;;;15.31;49.52
74921;BME280;63483;47.384;8.860;2023-07-22T04:57:19;94645.69;;;15.31;49.37
74921;BME280;63483;47.384;8.860;2023-07-22T04:59:45;94653.59;;;15.31;49.48
74921;BME280;63483;47.384;8.860;2023-07-22T05:02:10;94648.31;;;15.31;49.64
74921;BME280;63483;47.384;8.860;2023-07-22T05:04:36;94648.13;;;15.32;49.96
74921;BME280;63483;47.384;8.860;2023-07-22T05:07:02;94649.97;;;15.32;49.55
74921;BME280;63483;47.384;8.860;2023-07-22T05:09:27;94656.88;;;15.33;49.77
74921;BME280;63483;47.384;8.860;2023-07-22T05:11:52;94659.72;;;15.31;49.65
74921;BME280;63483;47.384;8.860;2023-07-22T05:14:17;94666.78;;;15.31;50.13
74921;BME280;63483;47.384;8.860;2023-07-22T05:16:43;94665.19;;;15.30;50.33
74921;BME280;63483;47.384;8.860;2023-07-22T05:19:08;94660.53;;;15.32;50.21
74921;BME280;63483;47.384;8.860;2023-07-22T05:21:33;94658.47;;;15.34;50.08
74921;BME280;63483;47.384;8.860;2023-07-22T05:23:59;94667.84;;;15.30;50.27
74921;BME280;63483;47.384;8.860;2023-07-22T05:26:24;94670.47;;;15.30;50.36
74921;BME280;63483;47.384;8.860;2023-07-22T05:28:49;94662.16;;;15.33;50.03
74921;BME280;63483;47.384;8.860;2023-07-22T05:31:16;94668.03;;;15.35;50.57
74921;BME280;63483;47.384;8.860;2023-07-22T05:33:41;94676.53;;;15.37;50.81
74921;BME280;63483;47.384;8.860;2023-07-22T05:36:06;94671.47;;;15.35;51.04
74921;BME280;63483;47.384;8.860;2023-07-22T05:38:32;94673.50;;;15.40;50.97
74921;BME280;63483;47.384;8.860;2023-07-22T05:40:57;94674.69;;;15.44;50.90
74921;BME280;63483;47.384;8.860;2023-07-22T05:43:23;94681.16;;;15.48;51.08
74921;BME280;63483;47.384;8.860;2023-07-22T05:45:48;94678.72;;;15.53;51.08
74921;BME280;63483;47.384;8.860;2023-07-22T05:48:14;94681.94;;;15.55;51.09
74921;BME280;63483;47.384;8.860;2023-07-22T05:50:40;94673.63;;;15.58;51.10
74921;BME280;63483;47.384;8.860;2023-07-22T05:53:06;94681.09;;;15.61;50.71
74921;BME280;63483;47.384;8.860;2023-07-22T05:55:31;94682.75;;;15.62;51.20
74921;BME280;63483;47.384;8.860;2023-07-22T05:57:57;94689.22;;;15.67;51.01
74921;BME280;63483;47.384;8.860;2023-07-22T06:00:22;94694.66;;;15.72;50.77
74921;BME280;63483;47.384;8.860;2023-07-22T06:02:48;94689.97;;;15.74;51.02
74921;BME280;63483;47.384;8.860;2023-07-22T06:05:13;94690.59;;;15.76;50.81
74921;BME280;63483;47.384;8.860;2023-07-22T06:07:39;94697.50;;;15.77;50.67
74921;BME280;63483;47.384;8.860;2023-07-22T06:10:05;94694.44;;;15.80;50.77
74921;BME280;63483;47.384;8.860;2023-07-22T06:12:30;94695.59;;;15.84;51.07
74921;BME280;63483;47.384;8.860;2023-07-22T06:14:56;94697.63;;;15.89;51.19
74921;BME280;63483;47.384;8.860;2023-07-22T06:17:21;94696.38;;;15.91;50.90
74921;BME280;63483;47.384;8.860;2023-07-22T06:19:46;94695.38;;;15.92;51.15
74921;BME280;63483;47.384;8.860;2023-07-22T06:22:12;94692.31;;;15.95;50.78
74921;BME280;63483;47.384;8.860;2023-07-22T06:24:37;94696.38;;;15.98;51.10
74921;BME280;63483;47.384;8.860;2023-07-22T06:27:02;94698.78;;;16.00;51.43
74921;BME280;63483;47.384;8.860;2023-07-22T06:29:28;94698.78;;;16.00;51.04
74921;BME280;63483;47.384;8.860;2023-07-22T06:31:53;94703.06;;;16.01;51.37
74921;BME280;63483;47.384;8.860;2023-07-22T06:34:18;94708.94;;;16.03;51.18
74921;BME280;63483;47.384;8.860;2023-07-22T06:36:44;94708.50;;;16.06;51.19
74921;BME280;63483;47.384;8.860;2023-07-22T06:39:09;94714.16;;;16.09;51.30
74921;BME280;63483;47.384;8.860;2023-07-22T06:41:34;94712.53;;;16.15;51.48
74921;BME280;63483;47.384;8.860;2023-07-22T06:44:00;94712.31;;;16.17;51.25
74921;BME280;63483;47.384;8.860;2023-07-22T06:46:25;94712.94;;;16.19;51.04
74921;BME280;63483;47.384;8.860;2023-07-22T06:48:50;94718.16;;;16.25;50.79
74921;BME280;63483;47.384;8.860;2023-07-22T06:51:15;94725.22;;;16.31;51.02
74921;BME280;63483;47.384;8.860;2023-07-22T06:53:41;94727.44;;;16.35;50.83
74921;BME280;63483;47.384;8.860;2023-07-22T06:56:06;94730.69;;;16.37;50.90
74921;BME280;63483;47.384;8.860;2023-07-22T06:58:31;94726.59;;;16.41;51.50
74921;BME280;63483;47.384;8.860;2023-07-22T07:00:57;94725.31;;;16.50;51.57
74921;BME280;63483;47.384;8.860;2023-07-22T07:03:22;94723.25;;;16.52;51.50
74921;BME280;63483;47.384;8.860;2023-07-22T07:05:55;94720.38;;;16.54;51.70
74921;BME280;63483;47.384;8.860;2023-07-22T07:08:21;94727.88;;;16.57;51.86
74921;BME280;63483;47.384;8.860;2023-07-22T07:10:47;94730.06;;;16.66;52.01
74921;BME280;63483;47.384;8.860;2023-07-22T07:13:12;94728.94;;;16.81;51.69
74921;BME280;63483;47.384;8.860;2023-07-22T07:15:38;94727.47;;;16.85;51.73
74921;BME280;63483;47.384;8.860;2023-07-22T07:18:03;94731.50;;;16.94;51.23
74921;BME280;63483;47.384;8.860;2023-07-22T07:20:29;94733.41;;;17.06;51.16
74921;BME280;63483;47.384;8.860;2023-07-22T07:22:54;94732.09;;;17.15;51.26
74921;BME280;63483;47.384;8.860;2023-07-22T07:25:19;94737.72;;;17.25;50.68
74921;BME280;63483;47.384;8.860;2023-07-22T07:27:45;94733.50;;;17.36;50.75
74921;BME280;63483;47.384;8.860;2023-07-22T07:30:10;94738.72;;;17.43;51.42
74921;BME280;63483;47.384;8.860;2023-07-22T07:32:36;94727.72;;;17.46;49.54
74921;BME280;63483;47.384;8.860;2023-07-22T07:35:01;94730.72;;;17.49;49.95
74921;BME280;63483;47.384;8.860;2023-07-22T07:37:27;94729.47;;;17.52;49.56
74921;BME280;63483;47.384;8.860;2023-07-22T07:39:52;94717.81;;;17.53;49.29
74921;BME280;63483;47.384;8.860;2023-07-22T07:42:17;94728.41;;;17.53;49.88
74921;BME280;63483;47.384;8.860;2023-07-22T07:44:43;94732.69;;;17.54;49.55
74921;BME280;63483;47.384;8.860;2023-07-22T07:47:09;94723.88;;;17.60;49.10
74921;BME280;63483;47.384;8.860;2023-07-22T07:49:34;94732.34;;;17.69;49.55
74921;BME280;63483;47.384;8.860;2023-07-22T07:51:59;94727.88;;;17.69;48.99
74921;BME280;63483;47.384;8.860;2023-07-22T07:54:24;94735.59;;;17.71;49.46
74921;BME280;63483;47.384;8.860;2023-07-22T07:56:50;94732.56;;;17.67;47.64
74921;BME280;63483;47.384;8.860;2023-07-22T07:59:15;94737.88;;;17.67;48.54
74921;BME280;63483;47.384;8.860;2023-07-22T08:01:40;94738.31;;;17.64;49.11
74921;BME280;63483;47.384;8.860;2023-07-22T08:04:07;94736.09;;;17.61;49.77
74921;BME280;63483;47.384;8.860;2023-07-22T08:06:33;94743.91;;;17.56;49.56
74921;BME280;63483;47.384;8.860;2023-07-22T08:08:59;94746.38;;;17.51;49.56
74921;BME280;63483;47.384;8.860;2023-07-22T08:11:24;94748.28;;;17.44;49.56
74921;BME280;63483;47.384;8.860;2023-07-22T08:13:50;94746.09;;;17.41;49.74
74921;BME280;63483;47.384;8.860;2023-07-22T08:16:17;94741.81;;;17.40;49.76
74921;BME280;63483;47.384;8.860;2023-07-22T08:18:42;94740.44;;;17.37;49.70
74921;BME280;63483;47.384;8.860;2023-07-22T08:21:08;94751.81;;;17.37;50.03
74921;BME280;63483;47.384;8.860;2023-07-22T08:23:34;94739.16;;;17.40;49.73
74921;BME280;63483;47.384;8.860;2023-07-22T08:25:59;94756.84;;;17.46;49.37
74921;BME280;63483;47.384;8.860;2023-07-22T08:28:25;94749.59;;;17.53;49.44
74921;BME280;63483;47.384;8.860;2023-07-22T08:30:54;94745.59;;;17.69;49.93
74921;BME280;63483;47.384;8.860;2023-07-22T08:33:21;94737.94;;;17.79;50.22
74921;BME280;63483;47.384;8.860;2023-07-22T08:35:46;94744.69;;;17.94;48.52
74921;BME280;63483;47.384;8.860;2023-07-22T08:38:13;94734.13;;;18.05;47.80
74921;BME280;63483;47.384;8.860;2023-07-22T08:40:40;94734.97;;;18.18;46.32
74921;BME280;63483;47.384;8.860;2023-07-22T08:43:08;94735.88;;;18.30;44.88
74921;BME280;63483;47.384;8.860;2023-07-22T08:45:35;94737.94;;;18.40;44.79
74921;BME280;63483;47.384;8.860;2023-07-22T08:48:05;94737.19;;;18.51;45.07
74921;BME280;63483;47.384;8.860;2023-07-22T08:53:05;94742.75;;;18.73;42.22
74921;BME280;63483;47.384;8.860;2023-07-22T08:55:30;94744.03;;;18.83;41.95
74921;BME280;63483;47.384;8.860;2023-07-22T08:57:56;94745.75;;;18.89;41.06
74921;BME280;63483;47.384;8.860;2023-07-22T09:00:22;94747.03;;;18.98;40.82
74921;BME280;63483;47.384;8.860;2023-07-22T09:02:48;94752.03;;;19.06;40.05
74921;BME280;63483;47.384;8.860;2023-07-22T09:05:13;94741.97;;;19.20;40.50
74921;BME280;63483;47.384;8.860;2023-07-22T09:07:39;94740.38;;;19.31;36.88
74921;BME280;63483;47.384;8.860;2023-07-22T09:10:08;94744.63;;;19.32;36.83
74921;BME280;63483;47.384;8.860;2023-07-22T09:12:34;94740.00;;;19.39;38.46
74921;BME280;63483;47.384;8.860;2023-07-22T09:15:08;94737.31;;;19.51;37.81
74921;BME280;63483;47.384;8.860;2023-07-22T09:17:35;94732.94;;;19.45;34.19
74921;BME280;63483;47.384;8.860;2023-07-22T09:20:01;94735.38;;;19.46;33.75
74921;BME280;63483;47.384;8.860;2023-07-22T09:22:28;94730.75;;;19.54;35.63
74921;BME280;63483;47.384;8.860;2023-07-22T09:24:53;94733.50;;;19.59;36.53
74921;BME280;63483;47.384;8.860;2023-07-22T09:27:36;94731.31;;;19.68;36.63
74921;BME280;63483;47.384;8.860;2023-07-22T09:30:02;94727.50;;;19.75;36.36
74921;BME280;63483;47.384;8.860;2023-07-22T09:32:43;94734.59;;;19.87;36.82
74921;BME280;63483;47.384;8.860;2023-07-22T09:35:08;94735.03;;;19.95;36.14
74921;BME280;63483;47.384;8.860;2023-07-22T09:37:38;94735.88;;;19.96;35.04
74921;BME280;63483;47.384;8.860;2023-07-22T09:40:20;94737.88;;;20.06;35.63
74921;BME280;63483;47.384;8.860;2023-07-22T09:42:51;94725.75;;;20.10;34.05
74921;BME280;63483;47.384;8.860;2023-07-22T09:45:22;94723.63;;;20.12;34.20
74921;BME280;63483;47.384;8.860;2023-07-22T09:47:49;94721.66;;;20.19;35.59
74921;BME280;63483;47.384;8.860;2023-07-22T09:50:17;94725.69;;;20.22;35.60
74921;BME280;63483;47.384;8.860;2023-07-22T09:52:53;94731.19;;;20.32;33.78
74921;BME280;63483;47.384;8.860;2023-07-22T09:55:23;94732.91;;;20.38;34.06
74921;BME280;63483;47.384;8.860;2023-07-22T09:57:52;94728.63;;;20.37;34.01
74921;BME280;63483;47.384;8.860;2023-07-22T10:00:18;94734.59;;;20.44;34.91
74921;BME280;63483;47.384;8.860;2023-07-22T10:02:45;94728.66;;;20.54;33.67
74921;BME280;63483;47.384;8.860;2023-07-22T10:05:14;94728.50;;;20.61;34.05
74921;BME280;63483;47.384;8.860;2023-07-22T10:07:47;94725.75;;;20.73;35.09
74921;BME280;63483;47.384;8.860;2023-07-22T10:10:15;94723.50;;;20.81;36.49
74921;BME280;63483;47.384;8.860;2023-07-22T10:12:41;94720.28;;;20.79;35.85
74921;BME280;63483;47.384;8.860;2023-07-22T10:15:08;94718.19;;;20.81;33.60
74921;BME280;63483;47.384;8.860;2023-07-22T10:17:34;94724.22;;;20.94;35.12
74921;BME280;63483;47.384;8.860;2023-07-22T10:20:02;94720.44;;;21.07;35.63
74921;BME280;63483;47.384;8.860;2023-07-22T10:22:34;94715.44;;;21.10;34.22
74921;BME280;63483;47.384;8.860;2023-07-22T10:25:00;94717.03;;;21.11;34.02
74921;BME280;63483;47.384;8.860;2023-07-22T10:27:26;94720.44;;;21.24;35.18
74921;BME280;63483;47.384;8.860;2023-07-22T10:29:53;94707.34;;;21.22;34.81
74921;BME280;63483;47.384;8.860;2023-07-22T10:32:19;94710.41;;;21.31;34.03
74921;BME280;63483;47.384;8.860;2023-07-22T10:34:44;94703.34;;;21.42;34.43
74921;BME280;63483;47.384;8.860;2023-07-22T10:37:10;94702.06;;;21.44;34.07
74921;BME280;63483;47.384;8.860;2023-07-22T10:39:36;94701.06;;;21.50;35.29
74921;BME280;63483;47.384;8.860;2023-07-22T10:42:03;94704.34;;;21.58;33.11
74921;BME280;63483;47.384;8.860;2023-07-22T10:44:36;94700.22;;;21.67;35.12
74921;BME280;63483;47.384;8.860;2023-07-22T10:47:02;94694.94;;;21.72;34.16
74921;BME280;63483;47.384;8.860;2023-07-22T10:49:44;94707.81;;;21.80;34.43
74921;BME280;63483;47.384;8.860;2023-07-22T10:52:11;94700.13;;;21.84;33.41
74921;BME280;63483;47.384;8.860;2023-07-22T10:54:37;94685.00;;;21.89;32.98
74921;BME280;63483;47.384;8.860;2023-07-22T10:57:03;94681.06;;;21.97;33.83
74921;BME280;63483;47.384;8.860;2023-07-22T10:59:32;94687.72;;;21.95;34.48
74921;BME280;63483;47.384;8.860;2023-07-22T11:01:59;94680.66;;;21.83;34.12
74921;BME280;63483;47.384;8.860;2023-07-22T11:04:25;94683.09;;;21.85;34.25
74921;BME280;63483;47.384;8.860;2023-07-22T11:07:03;94677.06;;;21.95;33.18
74921;BME280;63483;47.384;8.860;2023-07-22T11:14:48;94677.47;;;21.81;33.17
74921;BME280;63483;47.384;8.860;2023-07-22T11:17:14;94679.94;;;21.66;33.66
74921;BME280;63483;47.384;8.860;2023-07-22T11:19:40;94678.47;;;21.75;32.81
74921;BME280;63483;47.384;8.860;2023-07-22T11:22:06;94680.06;;;21.76;33.75
74921;BME280;63483;47.384;8.860;2023-07-22T11:24:34;94669.59;;;21.69;33.15
74921;BME280;63483;47.384;8.860;2023-07-22T11:27:03;94677.13;;;21.78;33.67
74921;BME280;63483;47.384;8.860;2023-07-22T11:29:29;94670.81;;;21.84;33.38
74921;BME280;63483;47.384;8.860;2023-07-22T11:31:54;94676.19;;;21.89;33.73
74921;BME280;63483;47.384;8.860;2023-07-22T11:34:21;94668.59;;;22.03;32.69
74921;BME280;63483;47.384;8.860;2023-07-22T11:36:48;94660.50;;;21.92;31.42
74921;BME280;63483;47.384;8.860;2023-07-22T11:39:22;94661.97;;;21.78;30.79
74921;BME280;63483;47.384;8.860;2023-07-22T11:41:48;94651.09;;;21.85;31.74
74921;BME280;63483;47.384;8.860;2023-07-22T11:44:16;94659.50;;;21.99;34.59
74921;BME280;63483;47.384;8.860;2023-07-22T11:47:03;94658.00;;;22.08;33.16
74921;BME280;63483;47.384;8.860;2023-07-22T11:49:36;94649.63;;;22.21;32.79
74921;BME280;63483;47.384;8.860;2023-07-22T11:52:05;94648.75;;;22.21;32.75
74921;BME280;63483;47.384;8.860;2023-07-22T11:54:33;94646.81;;;22.11;30.97
74921;BME280;63483;47.384;8.860;2023-07-22T11:57:16;94650.72;;;22.25;30.76
74921;BME280;63483;47.384;8.860;2023-07-22T11:59:46;94640.94;;;22.36;31.17
74921;BME280;63483;47.384;8.860;2023-07-22T12:02:14;94653.50;;;22.41;32.52
74921;BME280;63483;47.384;8.860;2023-07-22T12:04:39;94647.66;;;22.44;30.40
74921;BME280;63483;47.384;8.860;2023-07-22T12:07:04;94653.00;;;22.44;29.85
74921;BME280;63483;47.384;8.860;2023-07-22T12:09:30;94642.13;;;22.51;27.15
74921;BME280;63483;47.384;8.860;2023-07-22T12:11:57;94639.78;;;22.59;29.15
74921;BME280;63483;47.384;8.860;2023-07-22T12:14:24;94644.09;;;22.66;29.62
74921;BME280;63483;47.384;8.860;2023-07-22T12:16:55;94634.53;;;22.75;28.91
74921;BME280;63483;47.384;8.860;2023-07-22T12:19:21;94633.50;;;22.81;29.64
74921;BME280;63483;47.384;8.860;2023-07-22T12:21:46;94626.88;;;22.89;30.48
74921;BME280;63483;47.384;8.860;2023-07-22T12:24:14;94633.06;;;22.94;28.51
74921;BME280;63483;47.384;8.860;2023-07-22T12:26:40;94636.31;;;23.02;30.48
74921;BME280;63483;47.384;8.860;2023-07-22T12:29:05;94632.66;;;23.13;29.82
74921;BME280;63483;47.384;8.860;2023-07-22T12:31:30;94631.03;;;23.12;28.61
74921;BME280;63483;47.384;8.860;2023-07-22T12:33:55;94631.56;;;23.09;29.83
74921;BME280;63483;47.384;8.860;2023-07-22T12:36:21;94621.19;;;23.18;28.52
74921;BME280;63483;47.384;8.860;2023-07-22T12:38:46;94625.22;;;23.25;28.49
74921;BME280;63483;47.384;8.860;2023-07-22T12:41:11;94621.19;;;23.23;29.07
74921;BME280;63483;47.384;8.860;2023-07-22T12:43:37;94619.97;;;22.93;27.10
74921;BME280;63483;47.384;8.860;2023-07-22T12:46:02;94612.31;;;23.07;27.90
74921;BME280;63483;47.384;8.860;2023-07-22T12:48:27;94611.59;;;22.79;28.25
74921;BME280;63483;47.384;8.860;2023-07-22T12:50:53;94621.72;;;22.77;28.36
74921;BME280;63483;47.384;8.860;2023-07-22T12:53:18;94611.44;;;22.91;28.19
74921;BME280;63483;47.384;8.860;2023-07-22T12:55:43;94615.47;;;23.04;27.43
74921;BME280;63483;47.384;8.860;2023-07-22T12:58:09;94611.16;;;22.92;28.38
74921;BME280;63483;47.384;8.860;2023-07-22T13:00:34;94603.13;;;22.87;27.23
74921;BME280;63483;47.384;8.860;2023-07-22T13:02:59;94607.31;;;22.73;28.76
74921;BME280;63483;47.384;8.860;2023-07-22T13:05:25;94614.00;;;22.43;28.26